Stations météo

Publicité
Achnagart, Grande-Bretagne (99191): Température de l'air & dewpoint: 13.10.2018 20:00:00 - 19.10.2018 20:00:00 (BST)Achnagart, Grande-Bretagne (99191): Quantités de précipitations: 13.10.2018 20:00:00 - 19.10.2018 20:00:00 (BST)
Date & Time tt [°C] td [°C] rr [mm]
19.10.2018 20:00:00 7,1 5,6 0,0
19.10.2018 19:00:00 8,8 4,6 0,0
19.10.2018 18:00:00 10,6 5,2 0,0
19.10.2018 17:00:00 10,8 5,6 0,0
19.10.2018 16:00:00 11,4 6,6 0,0
19.10.2018 15:00:00 11,2 5,9 0,2
19.10.2018 14:00:00 12,0 6,7 0,0
19.10.2018 13:00:00 11,3 5,9 0,0
19.10.2018 12:00:00 11,2 7,4 0,8
19.10.2018 11:00:00 11,8 9,4 1,0
19.10.2018 10:00:00 11,4 8,7 0,6
19.10.2018 09:00:00 9,9 8,6 6,4
19.10.2018 08:00:00 9,6 8,1 2,4
19.10.2018 07:00:00 10,7 6,1 0,0
19.10.2018 06:00:00 11,4 4,8 0,0
19.10.2018 05:00:00 10,8 4,1 0,0
19.10.2018 04:00:00 10,8 3,4 0,0
19.10.2018 03:00:00 10,0 3,2 0,0
19.10.2018 02:00:00 10,5 3,9 0,0
19.10.2018 01:00:00 10,3 3,8 0,0
19.10.2018 00:00:00 10,5 4,0 0,0
18.10.2018 23:00:00 9,9 3,6 0,0
18.10.2018 22:00:00 9,3 4,5 0,0
18.10.2018 21:00:00 10,5 4,1 0,0
18.10.2018 20:00:00 9,7 4,1 0,0
18.10.2018 19:00:00 10,5 5,1 0,0
18.10.2018 18:00:00 10,3 6,0 0,0
18.10.2018 17:00:00 11,0 5,5 0,0
18.10.2018 16:00:00 10,7 5,9 0,0
18.10.2018 15:00:00 10,9 5,6 0,0
18.10.2018 14:00:00 10,7 6,0 0,0
18.10.2018 13:00:00 11,1 5,6 0,0
18.10.2018 12:00:00 10,7 5,1 0,0
18.10.2018 11:00:00 9,9 5,7 0,0
18.10.2018 10:00:00 8,9 6,8 0,0
18.10.2018 09:00:00 8,2 6,0 0,0
18.10.2018 08:00:00 8,1 5,8 0,0
18.10.2018 07:00:00 7,4 5,8 0,0
18.10.2018 06:00:00 7,7 5,4 0,0
18.10.2018 05:00:00 8,6 5,6 0,0
18.10.2018 04:00:00 9,4 4,7 0,0
18.10.2018 03:00:00 9,2 5,2 0,0
18.10.2018 02:00:00 6,5 5,8 0,2
18.10.2018 01:00:00 6,4 5,1 0,0
18.10.2018 00:00:00 5,8 4,1 0,0
17.10.2018 23:00:00 6,3 3,6 0,0
17.10.2018 22:00:00 8,6 4,4 0,0
17.10.2018 21:00:00 8,8 4,6 0,0
17.10.2018 20:00:00 7,9 4,8 0,0
17.10.2018 19:00:00 9,0 5,1 0,0
17.10.2018 18:00:00 9,1 5,9 0,8
17.10.2018 17:00:00 9,4 6,0 0,0
17.10.2018 16:00:00 10,2 5,8 0,2
17.10.2018 15:00:00 9,7 6,1 0,8
17.10.2018 14:00:00 9,6 5,6 0,0
17.10.2018 13:00:00 9,4 6,1 1,6
17.10.2018 12:00:00 8,5 5,8 0,8
17.10.2018 11:00:00 9,5 6,7 1,2
17.10.2018 10:00:00 9,5 6,3 0,0
17.10.2018 09:00:00 9,2 4,8 0,4
17.10.2018 08:00:00 9,1 5,2 0,0
17.10.2018 07:00:00 9,5 6,0 0,0
17.10.2018 06:00:00 9,2 6,4 0,4
17.10.2018 05:00:00 9,2 7,6 0,2
17.10.2018 04:00:00 10,4 6,6 0,0
17.10.2018 03:00:00 11,8 5,6 0,0
17.10.2018 02:00:00 12,1 6,2 0,0
17.10.2018 01:00:00 11,7 6,8 0,0
17.10.2018 00:00:00 11,7 6,4 0,0
16.10.2018 23:00:00 12,3 7,6 1,0
16.10.2018 22:00:00 12,2 9,6 1,6
16.10.2018 21:00:00 11,7 9,8 2,6
16.10.2018 20:00:00 13,2 8,7 0,0
16.10.2018 19:00:00 12,9 9,0 1,4
16.10.2018 18:00:00 13,4 8,5 0,2
16.10.2018 17:00:00 13,2 8,4 0,2
16.10.2018 16:00:00 13,1 8,3 0,0
16.10.2018 15:00:00 13,7 7,9 0,0
16.10.2018 14:00:00 13,1 9,7 1,2
16.10.2018 13:00:00 11,2 10,1 0,8
16.10.2018 12:00:00 11,4 9,0 0,4
16.10.2018 11:00:00 12,2 6,4 0,0
16.10.2018 10:00:00 12,2 6,2 0,2
16.10.2018 09:00:00 11,0 6,5 0,6
16.10.2018 08:00:00 12,4 4,3 0,0
16.10.2018 07:00:00 11,9 3,7 0,0
16.10.2018 06:00:00 11,2 3,3 0,0
16.10.2018 05:00:00 10,4 3,2 0,0
16.10.2018 04:00:00 10,3 2,2 0,0
16.10.2018 03:00:00 11,0 1,0 0,0
16.10.2018 02:00:00 11,0 1,5 0,0
16.10.2018 01:00:00 11,2 3,0 0,0
16.10.2018 00:00:00 11,3 3,7 0,0
15.10.2018 23:00:00 11,1 4,1 0,0
15.10.2018 22:00:00 10,6 5,1 0,0
15.10.2018 21:00:00 10,4 5,5 0,0
15.10.2018 20:00:00 10,2 5,7 0,0
15.10.2018 19:00:00 10,2 6,2 0,0
15.10.2018 18:00:00 11,4 7,1 0,0
15.10.2018 17:00:00 12,1 6,8 0,0
15.10.2018 16:00:00 11,9 7,0 0,0
15.10.2018 15:00:00 12,9 6,4 0,0
15.10.2018 14:00:00 13,0 6,6 0,0
15.10.2018 13:00:00 12,0 7,1 0,0
15.10.2018 12:00:00 12,3 5,9 0,0
15.10.2018 11:00:00 12,0 5,3 0,0
15.10.2018 10:00:00 11,1 5,8 0,0
15.10.2018 09:00:00 10,8 5,6 0,0
15.10.2018 08:00:00 10,1 4,9 0,0
15.10.2018 07:00:00 10,3 4,7 0,0
15.10.2018 06:00:00 9,1 5,2 0,0
15.10.2018 05:00:00 9,1 5,4 0,0
15.10.2018 04:00:00 9,5 5,4 0,0
15.10.2018 03:00:00 8,8 5,7 0,0
15.10.2018 02:00:00 8,4 5,7 0,0
15.10.2018 01:00:00 8,1 5,7 0,0
15.10.2018 00:00:00 7,3 5,7 0,0
14.10.2018 23:00:00 7,2 5,8 0,2
14.10.2018 22:00:00 6,8 5,5 0,0
14.10.2018 21:00:00 8,4 5,4 0,2
14.10.2018 20:00:00 7,1 5,8 0,2
14.10.2018 19:00:00 8,4 5,8 0,4
14.10.2018 18:00:00 8,9 3,7 0,0
14.10.2018 17:00:00 10,9 4,1 0,0
14.10.2018 16:00:00 11,2 5,0 0,0
14.10.2018 15:00:00 12,9 5,3 0,0
14.10.2018 14:00:00 12,1 3,4 0,0
14.10.2018 13:00:00 12,5 6,7 0,0
14.10.2018 12:00:00 9,2 7,2 0,0
14.10.2018 11:00:00 7,1 6,8 0,0
14.10.2018 10:00:00 6,4 6,3 0,0
14.10.2018 09:00:00 5,5 5,3 0,0
14.10.2018 08:00:00 5,3 5,1 0,0
14.10.2018 07:00:00 5,9 5,5 0,0
14.10.2018 06:00:00 6,5 6,3 0,4
14.10.2018 05:00:00 6,4 6,2 0,0
14.10.2018 04:00:00 7,1 6,7 0,2
14.10.2018 03:00:00 7,4 6,6 0,6
14.10.2018 02:00:00 8,0 6,9 0,8
14.10.2018 01:00:00 8,1 7,8 0,6
14.10.2018 00:00:00 8,0 7,8 0,4
13.10.2018 23:00:00 8,2 7,8 0,6
13.10.2018 22:00:00 8,1 7,4 0,2
13.10.2018 21:00:00 8,5 8,0 0,6
13.10.2018 20:00:00 8,7 8,4 0,8

tt = Température de l'air
td = dewpoint
rr = Quantités de précipitations

stations d'obs. à proximité